createdAt,value
2019-04-14T00:02:09.949Z,102722.93
2019-04-14T00:04:33.349Z,102717.97
2019-04-14T00:06:37.661Z,102722.16
2019-04-14T00:08:41.479Z,102724.42
2019-04-14T00:10:44.252Z,102723.95
2019-04-14T00:12:47.050Z,102721.15
2019-04-14T00:14:49.511Z,102720.46
2019-04-14T00:16:51.745Z,102714.13
2019-04-14T00:18:53.857Z,102712.16
2019-04-14T00:20:56.237Z,102715.61
2019-04-14T00:22:59.706Z,102718.02
2019-04-14T00:25:02.459Z,102718.53
2019-04-14T00:27:04.834Z,102720.27
2019-04-14T00:29:06.774Z,102718.31
2019-04-14T00:31:09.109Z,102718.77
2019-04-14T00:33:12.809Z,102725.11
2019-04-14T00:35:23.290Z,102716.19
2019-04-14T00:37:35.964Z,102715.00
2019-04-14T00:39:40.671Z,102711.80
2019-04-14T00:41:55.581Z,102711.21
2019-04-14T00:44:07.761Z,102709.17
2019-04-14T00:46:16.862Z,102713.32
2019-04-14T00:48:23.068Z,102709.55
2019-04-14T00:50:25.911Z,102710.63
2019-04-14T00:52:29.690Z,102703.28
2019-04-14T00:54:32.544Z,102703.34
2019-04-14T00:56:34.909Z,102704.38
2019-04-14T00:58:36.892Z,102698.88
2019-04-14T01:00:38.997Z,102696.41
2019-04-14T01:02:41.136Z,102696.23
2019-04-14T01:04:44.694Z,102693.28
2019-04-14T01:06:47.372Z,102696.92
2019-04-14T01:08:49.287Z,102695.77
2019-04-14T01:10:52.015Z,102699.55
2019-04-14T01:12:54.108Z,102692.39
2019-04-14T01:14:56.705Z,102691.03
2019-04-14T01:17:00.447Z,102693.05
2019-04-14T01:19:02.685Z,102690.31
2019-04-14T01:21:06.624Z,102689.38
2019-04-14T01:23:10.622Z,102692.45
2019-04-14T01:25:13.454Z,102690.97
2019-04-14T01:27:16.774Z,102695.28
2019-04-14T01:29:19.537Z,102690.81
2019-04-14T01:31:23.088Z,102694.30
2019-04-14T01:33:27.178Z,102691.28
2019-04-14T01:35:31.454Z,102688.54
2019-04-14T01:37:33.939Z,102694.87
2019-04-14T01:39:37.197Z,102689.45
2019-04-14T01:41:41.015Z,102691.20
2019-04-14T01:43:43.796Z,102690.98
2019-04-14T01:45:59.509Z,102692.81
2019-04-14T01:47:51.067Z,102690.92
2019-04-14T01:49:53.284Z,102696.37
2019-04-14T01:52:14.661Z,102687.55
2019-04-14T01:54:43.077Z,102682.11
2019-04-14T01:57:04.590Z,102686.03
2019-04-14T01:59:08.629Z,102685.86
2019-04-14T02:01:18.112Z,102689.50
2019-04-14T02:03:21.759Z,102691.45
2019-04-14T02:05:24.120Z,102691.09
2019-04-14T02:07:26.093Z,102689.81
2019-04-14T02:09:29.464Z,102685.26
2019-04-14T02:11:33.439Z,102687.45
2019-04-14T02:13:36.102Z,102683.96
2019-04-14T02:15:39.589Z,102688.67
2019-04-14T02:17:42.057Z,102694.55
2019-04-14T02:19:45.879Z,102694.65
2019-04-14T02:21:48.256Z,102698.40
2019-04-14T02:23:50.299Z,102698.87
2019-04-14T02:25:53.609Z,102695.68
2019-04-14T02:27:55.905Z,102693.58
2019-04-14T02:29:58.327Z,102698.10
2019-04-14T02:32:33.750Z,102694.65
2019-04-14T02:40:43.794Z,102700.63
2019-04-14T02:42:46.815Z,102695.08
2019-04-14T02:44:53.322Z,102708.39
2019-04-14T02:46:59.711Z,102699.47
2019-04-14T02:48:59.165Z,102697.73
2019-04-14T02:51:04.229Z,102702.81
2019-04-14T02:53:12.292Z,102703.78
2019-04-14T02:55:09.084Z,102707.05
2019-04-14T02:57:16.755Z,102707.92
2019-04-14T02:59:36.338Z,102705.36
2019-04-14T03:01:38.697Z,102705.61
2019-04-14T03:05:37.671Z,102713.55
2019-04-14T03:07:40.145Z,102715.97
2019-04-14T03:09:45.410Z,102716.50
2019-04-14T03:11:47.586Z,102710.59
2019-04-14T03:15:56.746Z,102708.27
2019-04-14T03:20:43.352Z,102709.92
2019-04-14T03:25:09.740Z,102708.27
2019-04-14T03:27:30.429Z,102712.65
2019-04-14T03:29:40.818Z,102705.39
2019-04-14T03:32:04.620Z,102710.53
2019-04-14T03:37:54.084Z,102717.93
2019-04-14T03:40:00.706Z,102712.36
2019-04-14T03:42:01.583Z,102712.89
2019-04-14T03:44:01.638Z,102710.70
2019-04-14T03:50:21.549Z,102705.33
2019-04-14T03:52:29.835Z,102710.70
2019-04-14T03:54:20.476Z,102712.36
2019-04-14T03:57:01.842Z,102709.77
2019-04-14T03:59:04.282Z,102713.55
2019-04-14T04:01:06.380Z,102713.71
2019-04-14T04:03:08.553Z,102716.90
2019-04-14T04:05:10.765Z,102719.62
2019-04-14T04:07:12.521Z,102710.69
2019-04-14T04:09:15.008Z,102716.44
2019-04-14T04:11:17.372Z,102716.80
2019-04-14T04:13:19.402Z,102715.08
2019-04-14T04:15:21.605Z,102714.19
2019-04-14T04:17:43.047Z,102721.15
2019-04-14T04:19:59.936Z,102715.25
2019-04-14T04:22:21.777Z,102719.92
2019-04-14T04:25:02.973Z,102712.69
2019-04-14T04:27:24.431Z,102714.41
2019-04-14T04:29:37.637Z,102715.41
2019-04-14T04:31:48.734Z,102718.42
2019-04-14T04:34:11.838Z,102716.39
2019-04-14T04:36:37.772Z,102716.30
2019-04-14T04:38:51.069Z,102716.30
2019-04-14T04:40:53.234Z,102717.20
2019-04-14T04:42:55.291Z,102720.38
2019-04-14T04:44:57.515Z,102720.85
2019-04-14T04:46:59.262Z,102719.49
2019-04-14T04:49:09.802Z,102720.22
2019-04-14T04:51:05.556Z,102720.98
2019-04-14T04:53:07.553Z,102722.94
2019-04-14T04:55:09.913Z,102725.83
2019-04-14T04:57:13.346Z,102729.15
2019-04-14T04:59:16.984Z,102726.59
2019-04-14T05:01:19.246Z,102726.19
2019-04-14T05:03:21.518Z,102732.63
2019-04-14T05:05:42.559Z,102734.06
2019-04-14T05:07:44.879Z,102736.88
2019-04-14T05:10:19.534Z,102732.92
2019-04-14T05:12:43.988Z,102733.98
2019-04-14T05:14:52.275Z,102733.09
2019-04-14T05:16:54.997Z,102732.53
2019-04-14T05:19:10.108Z,102733.59
2019-04-14T05:21:01.785Z,102737.67
2019-04-14T05:23:04.243Z,102733.99
2019-04-14T05:25:07.820Z,102737.31
2019-04-14T05:27:10.168Z,102731.41
2019-04-14T05:29:12.455Z,102734.59
2019-04-14T05:31:14.345Z,102739.87
2019-04-14T05:33:16.494Z,102740.62
2019-04-14T05:35:18.770Z,102739.34
2019-04-14T05:37:21.082Z,102746.38
2019-04-14T05:39:22.762Z,102745.02
2019-04-14T05:41:26.457Z,102752.24
2019-04-14T05:43:38.642Z,102755.80
2019-04-14T05:45:32.884Z,102751.48
2019-04-14T05:47:35.337Z,102755.44
2019-04-14T05:49:42.495Z,102749.98
2019-04-14T05:51:41.605Z,102754.37
2019-04-14T05:53:43.792Z,102753.73
2019-04-14T05:55:46.085Z,102761.69
2019-04-14T05:57:48.204Z,102755.59
2019-04-14T05:59:50.688Z,102756.41
2019-04-14T06:01:52.871Z,102757.34
2019-04-14T06:03:56.014Z,102759.66
2019-04-14T06:05:58.401Z,102770.82
2019-04-14T06:08:00.524Z,102764.42
2019-04-14T06:10:03.684Z,102769.52
2019-04-14T06:12:05.937Z,102768.94
2019-04-14T06:14:08.767Z,102772.83
2019-04-14T06:16:10.935Z,102774.87
2019-04-14T06:18:13.093Z,102781.34
2019-04-14T06:20:15.837Z,102776.63
2019-04-14T06:22:17.882Z,102776.13
2019-04-14T06:24:20.338Z,102781.68
2019-04-14T06:26:22.371Z,102778.16
2019-04-14T06:28:24.472Z,102777.50
2019-04-14T06:30:45.177Z,102776.30
2019-04-14T06:32:48.342Z,102770.63
2019-04-14T06:35:28.753Z,102782.25
2019-04-14T06:37:37.943Z,102772.81
2019-04-14T06:39:42.881Z,102775.45
2019-04-14T06:41:45.073Z,102769.77
2019-04-14T06:43:49.026Z,102768.98
2019-04-14T06:45:51.522Z,102766.31
2019-04-14T06:47:53.569Z,102762.06
2019-04-14T06:49:55.849Z,102769.58
2019-04-14T06:51:57.978Z,102768.41
2019-04-14T06:54:00.039Z,102764.59
2019-04-14T06:56:02.338Z,102769.27
2019-04-14T06:58:04.489Z,102773.72
2019-04-14T07:00:07.071Z,102778.08
2019-04-14T07:02:09.347Z,102771.50
2019-04-14T07:04:11.635Z,102772.66
2019-04-14T07:06:13.880Z,102774.56
2019-04-14T07:08:16.257Z,102777.14
2019-04-14T07:10:18.400Z,102779.98
2019-04-14T07:12:20.477Z,102778.66
2019-04-14T07:14:22.840Z,102779.63
2019-04-14T07:16:24.951Z,102788.44
2019-04-14T07:18:27.343Z,102790.33
2019-04-14T07:20:29.226Z,102780.90
2019-04-14T07:22:31.342Z,102788.60
2019-04-14T07:24:33.485Z,102787.91
2019-04-14T07:26:36.045Z,102789.13
2019-04-14T07:28:38.285Z,102793.94
2019-04-14T07:30:58.941Z,102795.46
2019-04-14T07:33:33.007Z,102788.27
2019-04-14T07:36:07.020Z,102789.88
2019-04-14T07:38:17.233Z,102795.61
2019-04-14T07:40:32.471Z,102798.95
2019-04-14T07:42:51.497Z,102801.23
2019-04-14T07:45:08.081Z,102797.31
2019-04-14T07:47:17.209Z,102802.55
2019-04-14T07:49:41.972Z,102805.80
2019-04-14T07:51:50.501Z,102803.24
2019-04-14T07:54:05.812Z,102803.39
2019-04-14T07:56:27.465Z,102803.73
2019-04-14T07:58:36.995Z,102813.05
2019-04-14T08:00:43.131Z,102808.95
2019-04-14T08:02:55.427Z,102816.14
2019-04-14T08:05:01.343Z,102822.83
2019-04-14T08:07:03.653Z,102822.30
2019-04-14T08:09:06.286Z,102807.97
2019-04-14T08:11:08.664Z,102810.11
2019-04-14T08:13:10.927Z,102818.34
2019-04-14T08:15:13.021Z,102815.42
2019-04-14T08:17:15.094Z,102815.54
2019-04-14T08:19:17.553Z,102812.95
2019-04-14T08:21:19.597Z,102806.84
2019-04-14T08:23:21.643Z,102817.95
2019-04-14T08:25:24.078Z,102810.56
2019-04-14T08:27:25.775Z,102807.89
2019-04-14T08:29:27.782Z,102814.79
2019-04-14T08:32:44.083Z,102810.08
2019-04-14T08:34:46.122Z,102812.84
2019-04-14T08:36:48.059Z,102815.76
2019-04-14T08:38:50.352Z,102813.38
2019-04-14T08:40:52.294Z,102813.81
2019-04-14T08:43:12.791Z,102815.60
2019-04-14T08:45:24.382Z,102818.91
2019-04-14T08:47:45.935Z,102811.72
2019-04-14T08:49:57.252Z,102816.77
2019-04-14T08:52:09.460Z,102820.38
2019-04-14T08:54:31.038Z,102816.34
2019-04-14T08:56:41.675Z,102811.14
2019-04-14T08:59:12.411Z,102820.34
2019-04-14T09:01:39.986Z,102824.97
2019-04-14T09:04:04.621Z,102822.78
2019-04-14T09:06:10.630Z,102830.53
2019-04-14T09:08:32.373Z,102833.84
2019-04-14T09:10:37.751Z,102838.70
2019-04-14T09:12:40.960Z,102838.31
2019-04-14T09:14:55.957Z,102836.94
2019-04-14T09:16:46.790Z,102840.05
2019-04-14T09:18:48.812Z,102829.64
2019-04-14T09:20:52.422Z,102829.78
2019-04-14T09:22:54.588Z,102831.15
2019-04-14T09:24:56.825Z,102831.98
2019-04-14T09:26:59.284Z,102830.91
2019-04-14T09:29:00.995Z,102828.23
2019-04-14T09:31:03.096Z,102829.84
2019-04-14T09:33:05.110Z,102831.30
2019-04-14T09:35:07.061Z,102829.66
2019-04-14T09:37:12.075Z,102823.80
2019-04-14T09:39:13.304Z,102831.92
2019-04-14T09:41:15.309Z,102834.00
2019-04-14T09:43:17.829Z,102831.20
2019-04-14T09:45:19.877Z,102829.17
2019-04-14T09:47:22.138Z,102827.98
2019-04-14T09:49:24.433Z,102831.62
2019-04-14T09:51:26.459Z,102829.09
2019-04-14T09:53:28.415Z,102822.81
2019-04-14T09:55:30.612Z,102818.08
2019-04-14T09:57:32.688Z,102813.48
2019-04-14T09:59:34.770Z,102817.77
2019-04-14T10:01:37.019Z,102813.48
2019-04-14T10:03:38.999Z,102826.41
2019-04-14T10:05:41.066Z,102826.30
2019-04-14T10:07:43.080Z,102820.30
2019-04-14T10:09:45.163Z,102823.30
2019-04-14T10:11:48.823Z,102819.48
2019-04-14T10:13:51.419Z,102817.48
2019-04-14T10:15:53.014Z,102811.88
2019-04-14T10:17:54.973Z,102817.55
2019-04-14T10:19:57.304Z,102808.30
2019-04-14T10:21:59.283Z,102808.76
2019-04-14T10:24:01.408Z,102820.71
2019-04-14T10:26:03.929Z,102813.63
2019-04-14T10:28:08.283Z,102813.28
2019-04-14T10:30:10.177Z,102816.13
2019-04-14T10:32:12.443Z,102814.78
2019-04-14T10:34:14.419Z,102816.90
2019-04-14T10:36:16.673Z,102816.90
2019-04-14T10:38:18.926Z,102816.55
2019-04-14T10:40:21.147Z,102820.13
2019-04-14T10:42:23.204Z,102823.80
2019-04-14T10:44:25.927Z,102818.10
2019-04-14T10:46:27.877Z,102818.97
2019-04-14T10:48:29.850Z,102804.41
2019-04-14T10:50:32.017Z,102812.22
2019-04-14T10:52:33.992Z,102809.55
2019-04-14T10:54:35.946Z,102813.14
2019-04-14T10:56:38.207Z,102812.62
2019-04-14T10:58:40.202Z,102816.17
2019-04-14T11:00:42.151Z,102810.92
2019-04-14T11:02:44.482Z,102809.02
2019-04-14T11:04:46.464Z,102810.66
2019-04-14T11:06:58.605Z,102800.76
2019-04-14T11:09:00.718Z,102815.64
2019-04-14T11:11:02.695Z,102820.31
2019-04-14T11:13:04.720Z,102818.66
2019-04-14T11:15:06.848Z,102828.55
2019-04-14T11:17:09.083Z,102829.95
2019-04-14T11:19:11.089Z,102823.55
2019-04-14T11:21:13.397Z,102824.16
2019-04-14T11:23:15.398Z,102828.75
2019-04-14T11:25:17.499Z,102830.73
2019-04-14T11:27:19.790Z,102828.36
2019-04-14T11:29:21.792Z,102827.90
2019-04-14T11:31:42.637Z,102821.30
2019-04-14T11:34:00.439Z,102826.17
2019-04-14T11:36:37.214Z,102824.92
2019-04-14T11:41:51.839Z,102813.45
2019-04-14T11:43:53.856Z,102810.14
2019-04-14T11:45:56.121Z,102811.51
2019-04-14T11:47:58.191Z,102816.45
2019-04-14T11:50:00.178Z,102807.05
2019-04-14T11:52:02.346Z,102816.92
2019-04-14T11:54:04.436Z,102804.30
2019-04-14T11:56:06.586Z,102807.84
2019-04-14T11:58:08.846Z,102805.65
2019-04-14T12:00:30.441Z,102805.17
2019-04-14T12:02:56.434Z,102806.55
2019-04-14T12:05:23.838Z,102813.72
2019-04-14T12:07:54.711Z,102809.84
2019-04-14T12:10:08.969Z,102806.55
2019-04-14T12:12:11.088Z,102820.75
2019-04-14T12:14:13.144Z,102813.59
2019-04-14T12:16:15.151Z,102811.74
2019-04-14T12:18:17.483Z,102811.45
2019-04-14T12:20:22.607Z,102815.91
2019-04-14T12:22:24.777Z,102811.23
2019-04-14T12:24:27.056Z,102815.09
2019-04-14T12:26:29.028Z,102810.41
2019-04-14T12:28:31.762Z,102815.91
2019-04-14T12:30:34.148Z,102822.25
2019-04-14T12:32:36.139Z,102821.41
2019-04-14T12:34:38.179Z,102820.59
2019-04-14T12:36:40.348Z,102811.77
2019-04-14T12:38:42.335Z,102819.49
2019-04-14T12:40:44.452Z,102812.59
2019-04-14T12:43:06.393Z,102808.47
2019-04-14T12:45:27.965Z,102809.28
2019-04-14T12:47:40.357Z,102799.41
2019-04-14T12:49:44.620Z,102800.75
2019-04-14T12:52:04.766Z,102802.39
2019-04-14T12:54:06.912Z,102811.97
2019-04-14T12:56:09.133Z,102812.87
2019-04-14T12:58:12.216Z,102815.91
2019-04-14T13:00:35.095Z,102809.29
2019-04-14T13:02:39.693Z,102800.23
2019-04-14T13:04:41.694Z,102793.81
2019-04-14T13:06:43.839Z,102790.49
2019-04-14T13:08:45.907Z,102792.47
2019-04-14T13:10:50.863Z,102800.17
2019-04-14T13:12:52.860Z,102786.67
2019-04-14T13:14:55.236Z,102792.77
2019-04-14T13:16:57.222Z,102791.67
2019-04-14T13:18:59.192Z,102783.95
2019-04-14T13:21:01.338Z,102785.03
2019-04-14T13:23:03.477Z,102789.70
2019-04-14T13:25:05.579Z,102777.59
2019-04-14T13:27:07.810Z,102787.76
2019-04-14T13:29:09.844Z,102786.57
2019-04-14T13:31:11.814Z,102779.03
2019-04-14T13:33:14.105Z,102784.48
2019-04-14T13:35:16.211Z,102784.92
2019-04-14T13:37:18.189Z,102771.97
2019-04-14T13:39:20.387Z,102786.57
2019-04-14T13:41:22.550Z,102778.06
2019-04-14T13:43:24.534Z,102762.61
2019-04-14T13:45:26.894Z,102775.03
2019-04-14T13:47:28.917Z,102763.42
2019-04-14T13:49:30.897Z,102759.35
2019-04-14T13:51:33.176Z,102756.55
2019-04-14T13:53:35.136Z,102755.92
2019-04-14T13:55:37.107Z,102750.61
2019-04-14T13:57:39.463Z,102754.09
2019-04-14T13:59:41.804Z,102756.83
2019-04-14T14:01:43.801Z,102746.73
2019-04-14T14:03:45.960Z,102747.41
2019-04-14T14:05:48.058Z,102751.82
2019-04-14T14:07:50.078Z,102749.13
2019-04-14T14:09:52.246Z,102741.45
2019-04-14T14:12:20.098Z,102746.83
2019-04-14T14:14:41.813Z,102751.84
2019-04-14T14:17:02.558Z,102748.52
2019-04-14T14:19:28.740Z,102744.34
2019-04-14T14:22:05.698Z,102737.73
2019-04-14T14:24:26.274Z,102730.86
2019-04-14T14:26:29.124Z,102730.98
2019-04-14T14:28:31.489Z,102739.48
2019-04-14T14:30:33.465Z,102737.86
2019-04-14T14:32:35.775Z,102734.96
2019-04-14T14:34:38.086Z,102734.38
2019-04-14T14:36:40.080Z,102739.99
2019-04-14T14:38:42.210Z,102726.80
2019-04-14T14:40:44.484Z,102730.89
2019-04-14T14:42:46.475Z,102728.29
2019-04-14T14:44:57.407Z,102730.00
2019-04-14T14:47:09.212Z,102733.80
2019-04-14T14:49:19.731Z,102731.87
2019-04-14T14:51:30.471Z,102746.48
2019-04-14T14:53:32.693Z,102752.13
2019-04-14T14:55:34.677Z,102743.58
2019-04-14T14:57:36.676Z,102756.86
2019-04-14T14:59:38.987Z,102760.45
2019-04-14T15:01:40.959Z,102755.77
2019-04-14T15:03:42.965Z,102748.78
2019-04-14T15:05:45.373Z,102752.56
2019-04-14T15:07:47.357Z,102756.89
2019-04-14T15:09:49.365Z,102756.56
2019-04-14T15:11:51.759Z,102760.41
2019-04-14T15:13:53.477Z,102761.69
2019-04-14T15:15:55.607Z,102759.91
2019-04-14T15:17:57.739Z,102751.41
2019-04-14T15:19:59.868Z,102761.31
2019-04-14T15:22:02.104Z,102764.34
2019-04-14T15:24:04.539Z,102764.91
2019-04-14T15:26:06.587Z,102766.57
2019-04-14T15:28:08.654Z,102762.95
2019-04-14T15:30:15.679Z,102748.78
2019-04-14T15:32:17.722Z,102739.58
2019-04-14T15:34:19.692Z,102755.09
2019-04-14T15:36:21.920Z,102757.24
2019-04-14T15:38:24.109Z,102761.99
2019-04-14T15:40:26.906Z,102752.11
2019-04-14T15:42:29.033Z,102757.95
2019-04-14T15:44:31.156Z,102752.11
2019-04-14T15:46:33.154Z,102762.30
2019-04-14T15:48:35.220Z,102767.00
2019-04-14T15:50:37.215Z,102762.03
2019-04-14T15:52:39.475Z,102759.54
2019-04-14T15:54:42.225Z,102762.27
2019-04-14T15:57:03.794Z,102762.56
2019-04-14T15:59:11.519Z,102755.96
2019-04-14T16:01:35.818Z,102759.77
2019-04-14T16:04:09.099Z,102768.22
2019-04-14T16:06:30.179Z,102776.39
2019-04-14T16:08:43.029Z,102769.53
2019-04-14T16:10:51.979Z,102760.98
2019-04-14T16:13:12.029Z,102754.66
2019-04-14T16:15:37.558Z,102759.56
2019-04-14T16:17:58.584Z,102761.77
2019-04-14T16:20:05.426Z,102768.72
2019-04-14T16:22:07.499Z,102764.31
2019-04-14T16:24:09.658Z,102759.88
2019-04-14T16:26:25.538Z,102768.69
2019-04-14T16:28:49.880Z,102765.91
2019-04-14T16:31:26.914Z,102770.02
2019-04-14T16:33:48.520Z,102770.86
2019-04-14T16:35:51.075Z,102762.37
2019-04-14T16:37:53.280Z,102762.06
2019-04-14T16:39:55.252Z,102761.80
2019-04-14T16:41:57.219Z,102765.39
2019-04-14T16:43:59.356Z,102768.15
2019-04-14T16:46:01.496Z,102767.30
2019-04-14T16:48:03.533Z,102775.03
2019-04-14T16:50:05.849Z,102770.63
2019-04-14T16:52:26.112Z,102775.06
2019-04-14T16:54:53.783Z,102769.25
2019-04-14T16:57:14.809Z,102771.73
2019-04-14T16:59:16.847Z,102775.06
2019-04-14T17:01:27.092Z,102776.72
2019-04-14T17:03:29.400Z,102784.13
2019-04-14T17:05:31.418Z,102791.86
2019-04-14T17:07:35.194Z,102787.20
2019-04-14T17:09:37.527Z,102782.81
2019-04-14T17:11:39.551Z,102789.69
2019-04-14T17:13:44.625Z,102791.63
2019-04-14T17:16:05.107Z,102790.27
2019-04-14T17:18:16.181Z,102799.33
2019-04-14T17:20:43.865Z,102790.52
2019-04-14T17:22:58.935Z,102798.52
2019-04-14T17:25:21.182Z,102791.64
2019-04-14T17:27:32.837Z,102797.14
2019-04-14T17:29:54.949Z,102803.48
2019-04-14T17:32:12.873Z,102799.64
2019-04-14T17:34:35.093Z,102798.84
2019-04-14T17:36:53.174Z,102804.31
2019-04-14T17:39:14.771Z,102799.39
2019-04-14T17:41:27.705Z,102803.23
2019-04-14T17:43:32.938Z,102801.04
2019-04-14T17:45:54.675Z,102801.05
2019-04-14T17:48:08.654Z,102806.55
2019-04-14T17:50:41.021Z,102803.54
2019-04-14T17:52:47.325Z,102801.30
2019-04-14T17:55:03.107Z,102819.22
2019-04-14T17:57:24.858Z,102809.87
2019-04-14T17:59:45.128Z,102814.25
2019-04-14T18:02:09.787Z,102820.02
2019-04-14T18:04:19.493Z,102819.17
2019-04-14T18:06:53.395Z,102813.95
2019-04-14T18:09:23.923Z,102822.17
2019-04-14T18:11:52.640Z,102814.47
2019-04-14T18:14:14.333Z,102822.73
2019-04-14T18:16:33.586Z,102831.78
2019-04-14T18:19:10.377Z,102831.23
2019-04-14T18:21:12.341Z,102832.02
2019-04-14T18:23:14.396Z,102836.73
2019-04-14T18:25:16.647Z,102833.67
2019-04-14T18:27:18.741Z,102836.39
2019-04-14T18:29:27.227Z,102841.92
2019-04-14T18:31:36.660Z,102827.31
2019-04-14T18:33:44.951Z,102838.03
2019-04-14T18:35:57.416Z,102831.72
2019-04-14T18:38:26.574Z,102833.87
2019-04-14T18:40:48.178Z,102829.20
2019-04-14T18:43:24.917Z,102829.74
2019-04-14T18:45:39.526Z,102829.19
2019-04-14T18:48:03.675Z,102828.59
2019-04-14T18:50:28.274Z,102832.99
2019-04-14T18:52:39.578Z,102831.11
2019-04-14T18:54:56.361Z,102837.39
2019-04-14T18:57:14.866Z,102832.67
2019-04-14T18:59:40.277Z,102840.06
2019-04-14T19:01:43.917Z,102850.79
2019-04-14T19:03:46.136Z,102851.56
2019-04-14T19:05:48.590Z,102855.12
2019-04-14T19:07:50.516Z,102859.79
2019-04-14T19:09:52.653Z,102860.61
2019-04-14T19:12:14.655Z,102864.95
2019-04-14T19:14:21.362Z,102869.96
2019-04-14T19:16:39.699Z,102876.97
2019-04-14T19:18:49.388Z,102875.01
2019-04-14T19:20:55.724Z,102876.01
2019-04-14T19:22:57.717Z,102875.20
2019-04-14T19:25:07.923Z,102870.19
2019-04-14T19:27:03.995Z,102870.25
2019-04-14T19:29:06.098Z,102871.91
2019-04-14T19:31:08.610Z,102875.77
2019-04-14T19:33:10.673Z,102875.74
2019-04-14T19:35:12.697Z,102878.52
2019-04-14T19:37:15.006Z,102884.82
2019-04-14T19:39:17.571Z,102886.75
2019-04-14T19:41:19.564Z,102883.73
2019-04-14T19:43:24.102Z,102884.01
2019-04-14T19:45:25.912Z,102885.36
2019-04-14T19:47:28.413Z,102875.97
2019-04-14T19:49:30.673Z,102878.59
2019-04-14T19:51:32.686Z,102873.38
2019-04-14T19:53:36.060Z,102872.27
2019-04-14T19:55:38.382Z,102860.45
2019-04-14T19:57:41.262Z,102862.94
2019-04-14T19:59:43.234Z,102863.46
2019-04-14T20:01:45.384Z,102860.13
2019-04-14T20:03:47.650Z,102864.57
2019-04-14T20:05:51.409Z,102866.70
2019-04-14T20:07:54.037Z,102860.09
2019-04-14T20:09:56.357Z,102855.95
2019-04-14T20:11:58.635Z,102859.81
2019-04-14T20:14:01.029Z,102860.56
2019-04-14T20:16:27.393Z,102858.62
2019-04-14T20:18:48.940Z,102863.83
2019-04-14T20:21:13.061Z,102858.64
2019-04-14T20:23:37.675Z,102859.96
2019-04-14T20:25:58.153Z,102859.17
2019-04-14T20:28:11.719Z,102861.61
2019-04-14T20:30:20.663Z,102858.59
2019-04-14T20:32:25.490Z,102862.70
2019-04-14T20:34:27.689Z,102858.31
2019-04-14T20:36:29.679Z,102864.37
2019-04-14T20:38:31.646Z,102871.77
2019-04-14T20:40:34.781Z,102873.12
2019-04-14T20:42:36.901Z,102875.86
2019-04-14T20:44:38.852Z,102876.14
2019-04-14T20:46:41.087Z,102870.27
2019-04-14T20:48:45.019Z,102869.19
2019-04-14T20:50:46.996Z,102870.94
2019-04-14T20:52:49.566Z,102871.16
2019-04-14T20:54:51.541Z,102873.12
2019-04-14T20:58:06.367Z,102872.06
2019-04-14T21:00:08.447Z,102879.45
2019-04-14T21:02:36.021Z,102874.20
2019-04-14T21:05:16.322Z,102882.95
2019-04-14T21:07:39.858Z,102888.70
2019-04-14T21:09:53.950Z,102886.19
2019-04-14T21:12:07.540Z,102893.55
2019-04-14T21:14:19.653Z,102897.16
2019-04-14T21:16:35.532Z,102912.80
2019-04-14T21:18:57.474Z,102913.09
2019-04-14T21:21:19.080Z,102905.38
2019-04-14T21:23:39.518Z,102906.19
2019-04-14T21:26:01.181Z,102914.66
2019-04-14T21:28:11.851Z,102923.90
2019-04-14T21:30:25.481Z,102925.52
2019-04-14T21:32:31.676Z,102925.25
2019-04-14T21:35:05.540Z,102929.34
2019-04-14T21:37:24.539Z,102935.66
2019-04-14T21:39:58.544Z,102936.48
2019-04-14T21:42:00.515Z,102937.05
2019-04-14T21:44:02.473Z,102937.77
2019-04-14T21:46:04.624Z,102944.34
2019-04-14T21:48:06.602Z,102952.39
2019-04-14T21:50:08.619Z,102952.39
2019-04-14T21:52:33.867Z,102954.28
2019-04-14T21:54:35.938Z,102952.02
2019-04-14T21:56:37.948Z,102959.77
2019-04-14T21:58:54.803Z,102954.19
2019-04-14T22:01:48.974Z,102952.80
2019-04-14T22:04:20.016Z,102956.08
2019-04-14T22:06:31.844Z,102958.94
2019-04-14T22:08:37.551Z,102969.09
2019-04-14T22:10:46.472Z,102970.44
2019-04-14T22:12:48.645Z,102975.35
2019-04-14T22:14:50.754Z,102976.15
2019-04-14T22:16:52.836Z,102984.22
2019-04-14T22:18:57.892Z,102981.50
2019-04-14T22:20:59.879Z,102978.92
2019-04-14T22:23:03.768Z,102986.32
2019-04-14T22:25:05.828Z,102987.09
2019-04-14T22:27:07.881Z,102987.88
2019-04-14T22:29:10.154Z,102992.50
2019-04-14T22:31:12.181Z,102990.23
2019-04-14T22:33:14.222Z,102990.62
2019-04-14T22:35:16.742Z,102989.76
2019-04-14T22:37:18.694Z,102978.70
2019-04-14T22:39:20.730Z,102976.76
2019-04-14T22:41:22.926Z,102981.16
2019-04-14T22:43:25.083Z,102984.40
2019-04-14T22:45:27.043Z,102988.51
2019-04-14T22:47:29.221Z,102990.67
2019-04-14T22:49:31.464Z,102994.97
2019-04-14T22:51:33.482Z,102996.56
2019-04-14T22:53:35.508Z,102999.01
2019-04-14T22:55:37.593Z,102998.55
2019-04-14T22:57:39.598Z,102993.75
2019-04-14T22:59:41.793Z,102997.46
2019-04-14T23:01:46.873Z,102998.33
2019-04-14T23:04:08.572Z,102985.94
2019-04-14T23:06:36.157Z,102990.83
2019-04-14T23:09:06.688Z,102993.14
2019-04-14T23:11:14.181Z,102989.07
2019-04-14T23:13:28.158Z,102991.23
2019-04-14T23:15:38.543Z,102984.63
2019-04-14T23:17:44.771Z,102982.36
2019-04-14T23:19:52.384Z,102974.44
2019-04-14T23:22:02.603Z,102978.72
2019-04-14T23:24:13.289Z,102979.63
2019-04-14T23:26:15.889Z,102972.92
2019-04-14T23:28:17.895Z,102972.38
2019-04-14T23:30:21.186Z,102966.70
2019-04-14T23:32:23.262Z,102968.86
2019-04-14T23:34:25.351Z,102974.63
2019-04-14T23:36:27.339Z,102967.41
2019-04-14T23:38:29.371Z,102971.12
2019-04-14T23:40:31.339Z,102965.17
2019-04-14T23:42:33.366Z,102965.17
2019-04-14T23:44:35.657Z,102963.98
2019-04-14T23:46:37.639Z,102956.64
2019-04-14T23:48:39.619Z,102958.80
2019-04-14T23:50:41.732Z,102953.54
2019-04-14T23:52:43.755Z,102956.41
2019-04-14T23:54:45.771Z,102951.77
2019-04-14T23:56:47.817Z,102952.09
2019-04-14T23:58:49.800Z,102948.28
